Shinkai Maru — JJ4012 — position and weather

sailwx.info

Track history (hours):
 
Tides and Currents Weather Stations Pressure Air Temp Water Temp Dewpoint Dewpoint Depression Visibility Wind Speed Wind Dir Waves Ship Positions

Shinkai Maru

Last reported at 2017-Aug-23 14:46 UTC. Time now 2017-Aug-24 10:38 UTC.
Position N 34°25' E 135°00'.

Length 76 m; draft 4.1 m.

Type: Cargo ship. MMSI: 431301346.

Date/timePositionNaut miles runAvg speedWind from/ knotsBaromVisibWave heightAir tempDewpointWater temp
2017-Aug-23 14:46N 34°25' E 135°00'311.6
2017-Aug-23 14:29N 34°28' E 135°01'9 8.9
2017-Aug-23 13:29N 34°37' E 135°01'510.1
2017-Aug-23 13:00N 34°37' E 134°55'1 0.0
2017-Aug-22 09:42N 34°37' E 134°56'514.0
2017-Aug-22 09:23N 34°37' E 135°01'512.0
2017-Aug-22 09:00N 34°37' E 135°07'3 5.0
2017-Aug-22 08:30N 34°37' E 135°10'3 5.7
2017-Aug-22 08:00N 34°35' E 135°08'611.2
2017-Aug-22 07:30N 34°29' E 135°06'1412.0
2017-Aug-22 06:21N 34°16' E 135°03'513.4
2017-Aug-22 06:00N 34°11' E 135°03'612.1
2017-Aug-22 05:30N 34°05' E 135°03'  
2017-Aug-19 10:55N 34°13' E 134°59'1510.0
2017-Aug-19 09:26N 34°28' E 135°01'710.6
2017-Aug-19 08:47N 34°34' E 135°02'2 6.8
2017-Aug-19 08:30N 34°36' E 135°02'  
Track history (hours):
 
Tides and Currents Weather Stations Pressure Air Temp Water Temp Dewpoint Dewpoint Depression Visibility Wind Speed Wind Dir Waves Ship Positions

Shinkai Maru

Last reported at 2017-Aug-23 14:46 UTC. Time now 2017-Aug-24 10:38 UTC.
Position N 34°25' E 135°00'.

Length 76 m; draft 4.1 m.

Type: Cargo ship. MMSI: 431301346.

Date/timePositionNaut miles runAvg speedWind from/ knotsBaromVisibWave heightAir tempDewpointWater temp
2017-Aug-23 14:46N 34°25' E 135°00'311.6
2017-Aug-23 14:29N 34°28' E 135°01'9 8.9
2017-Aug-23 13:29N 34°37' E 135°01'510.1
2017-Aug-23 13:00N 34°37' E 134°55'1 0.0
2017-Aug-22 09:42N 34°37' E 134°56'514.0
2017-Aug-22 09:23N 34°37' E 135°01'512.0
2017-Aug-22 09:00N 34°37' E 135°07'3 5.0
2017-Aug-22 08:30N 34°37' E 135°10'3 5.7
2017-Aug-22 08:00N 34°35' E 135°08'611.2
2017-Aug-22 07:30N 34°29' E 135°06'1412.0
2017-Aug-22 06:21N 34°16' E 135°03'513.4
2017-Aug-22 06:00N 34°11' E 135°03'612.1
2017-Aug-22 05:30N 34°05' E 135°03'  
2017-Aug-19 10:55N 34°13' E 134°59'1510.0
2017-Aug-19 09:26N 34°28' E 135°01'710.6
2017-Aug-19 08:47N 34°34' E 135°02'2 6.8
2017-Aug-19 08:30N 34°36' E 135°02'  

Dump ship's entire track history